Time,TemperatureF,DewpointF,PressureIn,WindDirection,WindDirectionDegrees,WindSpeedMPH,WindSpeedGustMPH,Humidity,HourlyPrecipIn,Conditions,Clouds,dailyrainin,SoftwareType,DateUTC
2013-05-05 01:22:00,34.0,31.0,30.20,East,88,0.0,0.0,90,0.00,,,0.00,,2013-05-05 05:22:00,
2013-05-05 01:32:00,34.0,31.0,30.20,East,88,0.0,0.0,90,0.00,,,0.00,,2013-05-05 05:32:00,
2013-05-05 01:42:00,34.0,31.0,30.20,East,88,0.0,0.0,90,0.00,,,0.00,,2013-05-05 05:42:00,
2013-05-05 01:51:00,34.0,31.0,30.20,East,88,0.0,0.0,90,0.00,,,0.00,,2013-05-05 05:51:00,
2013-05-05 04:53:00,30.0,28.0,30.17,East,88,0.0,0.0,93,0.00,,,0.00,,2013-05-05 08:53:00,
2013-05-05 05:01:00,30.0,28.0,30.18,East,88,0.0,0.0,93,0.00,,,0.00,,2013-05-05 09:01:00,
2013-05-05 05:11:00,30.0,28.0,30.18,East,88,0.0,0.0,93,0.00,,,0.00,,2013-05-05 09:11:00,
2013-05-05 05:21:00,30.0,28.0,30.18,East,88,0.0,0.0,93,0.00,,,0.00,,2013-05-05 09:21:00,
2013-05-05 05:33:00,30.0,28.0,30.18,East,88,0.0,0.0,93,0.00,,,0.00,,2013-05-05 09:33:00,
2013-05-05 05:42:00,30.0,28.0,30.18,East,88,0.0,0.0,93,0.00,,,0.00,,2013-05-05 09:42:00,
2013-05-05 06:12:00,30.0,29.0,30.18,East,88,0.0,0.0,95,0.00,,,0.00,,2013-05-05 10:12:00,
2013-05-05 06:22:00,30.0,29.0,30.18,East,88,0.0,0.0,95,0.00,,,0.00,,2013-05-05 10:22:00,
2013-05-05 06:32:00,30.0,28.0,30.18,East,88,0.0,0.0,94,0.00,,,0.00,,2013-05-05 10:32:00,
2013-05-05 06:42:00,30.0,28.0,30.18,East,88,0.0,0.0,94,0.00,,,0.00,,2013-05-05 10:42:00,
2013-05-05 06:53:00,30.0,28.0,30.18,East,88,0.0,0.0,94,0.00,,,0.00,,2013-05-05 10:53:00,
2013-05-05 07:01:00,31.0,30.0,30.19,East,88,0.0,0.0,95,0.00,,,0.00,,2013-05-05 11:01:00,
2013-05-05 07:12:00,31.0,30.0,30.19,East,88,0.0,0.0,95,0.00,,,0.00,,2013-05-05 11:12:00,
2013-05-05 07:22:00,31.0,30.0,30.19,East,88,0.0,0.0,95,0.00,,,0.00,,2013-05-05 11:22:00,
2013-05-05 07:32:00,31.0,30.0,30.19,East,88,0.0,0.0,95,0.00,,,0.00,,2013-05-05 11:32:00,
2013-05-05 07:42:00,31.0,30.0,30.19,East,88,0.0,0.0,95,0.00,,,0.00,,2013-05-05 11:42:00,
2013-05-05 07:52:00,34.0,32.0,30.19,East,88,0.0,0.0,92,0.00,,,0.00,,2013-05-05 11:52:00,
2013-05-05 08:02:00,34.0,32.0,30.19,East,88,0.0,0.0,92,0.00,,,0.00,,2013-05-05 12:02:00,
2013-05-05 08:11:00,34.0,32.0,30.19,East,88,0.0,0.0,92,0.00,,,0.00,,2013-05-05 12:11:00,
2013-05-05 08:21:00,35.0,33.0,30.18,North,0,255.0,255.0,92,0.00,,,0.00,,2013-05-05 12:21:00,
2013-05-05 08:32:00,42.0,40.0,30.19,SW,216,0.0,255.0,92,0.00,,,0.00,,2013-05-05 12:32:00,
2013-05-05 08:42:00,42.0,40.0,30.19,SW,216,0.0,255.0,92,0.00,,,0.00,,2013-05-05 12:42:00,
2013-05-05 08:52:00,42.0,40.0,30.19,SW,216,0.0,255.0,92,0.00,,,0.00,,2013-05-05 12:52:00,
2013-05-05 09:01:00,46.0,39.0,30.19,South,188,2.0,2.0,75,0.00,,,0.00,,2013-05-05 13:01:00,
2013-05-05 09:11:00,46.0,39.0,30.19,South,188,2.0,2.0,75,0.00,,,0.00,,2013-05-05 13:11:00,
2013-05-05 09:21:00,46.0,39.0,30.19,South,188,2.0,2.0,75,0.00,,,0.00,,2013-05-05 13:21:00,
2013-05-05 09:32:00,46.0,39.0,30.19,South,188,2.0,2.0,75,0.00,,,0.00,,2013-05-05 13:32:00,
2013-05-05 12:11:00,65.0,40.0,30.14,SW,234,6.0,8.0,40,0.00,,,0.00,,2013-05-05 16:11:00,
2013-05-05 12:32:00,65.0,40.0,30.14,SW,234,6.0,8.0,40,0.00,,,0.00,,2013-05-05 16:32:00,
2013-05-05 12:42:00,65.0,40.0,30.14,SW,234,6.0,8.0,40,0.00,,,0.00,,2013-05-05 16:42:00,
2013-05-05 12:53:00,65.0,40.0,30.14,SW,234,6.0,8.0,40,0.00,,,0.00,,2013-05-05 16:53:00,
2013-05-05 13:02:00,65.0,40.0,30.14,SW,234,6.0,8.0,40,0.00,,,0.00,,2013-05-05 17:02:00,
2013-05-05 18:03:00,67.0,41.0,30.08,East,85,5.0,6.0,38,0.00,,,0.00,,2013-05-05 22:03:00,
2013-05-05 18:12:00,67.0,41.0,30.08,East,85,5.0,6.0,38,0.00,,,0.00,,2013-05-05 22:12:00,
2013-05-05 18:22:00,64.0,40.0,30.09,East,79,2.0,2.0,42,0.00,,,0.00,,2013-05-05 22:22:00,
2013-05-05 18:33:00,64.0,40.0,30.09,East,79,2.0,2.0,42,0.00,,,0.00,,2013-05-05 22:33:00,
2013-05-05 18:42:00,64.0,40.0,30.09,East,79,2.0,2.0,42,0.00,,,0.00,,2013-05-05 22:42:00,
2013-05-05 18:52:00,64.0,40.0,30.09,East,79,2.0,2.0,42,0.00,,,0.00,,2013-05-05 22:52:00,
2013-05-05 19:02:00,64.0,40.0,30.09,East,79,2.0,2.0,42,0.00,,,0.00,,2013-05-05 23:02:00,